Time;durP1;ratioP1;P1;durP2;ratioP2;P2;SDS_P1;SDS_P2;PMS_P1;PMS_P2;Temp;Humidity;BMP_temperature;BMP_pressure;BME280_temperature;BME280_humidity;BME280_pressure;Samples;Min_cycle;Max_cycle;Signal;HPM_P1;HPM_P2
2022/01/04 00:00:09;;;;;;;2.80;2.50;;;10.00;99.90;;;;;;4995625;28;20303;-70
2022/01/04 00:02:35;;;;;;;3.78;2.70;;;10.00;99.90;;;;;;4995742;28;20218;-70
2022/01/04 00:05:04;;;;;;;2.58;2.00;;;10.00;99.90;;;;;;4995307;28;20195;-70
2022/01/04 00:07:31;;;;;;;2.00;1.90;;;10.00;99.90;;;;;;4994576;28;20226;-70
2022/01/04 00:09:58;;;;;;;3.30;2.20;;;10.00;99.90;;;;;;4995039;28;20206;-70
2022/01/04 00:15:09;;;;;;;2.97;2.55;;;10.00;99.90;;;;;;4994954;28;20244;-71
2022/01/04 00:17:36;;;;;;;2.60;2.30;;;10.10;99.90;;;;;;4995083;28;20206;-70
2022/01/04 00:20:06;;;;;;;3.55;2.92;;;10.00;99.90;;;;;;4994977;28;20208;-70
2022/01/04 00:22:33;;;;;;;2.83;2.10;;;10.10;99.90;;;;;;4994930;28;20706;-70
2022/01/04 00:24:59;;;;;;;2.42;2.22;;;10.00;99.90;;;;;;4995394;28;20187;-70
2022/01/04 00:27:25;;;;;;;2.00;1.90;;;10.00;99.90;;;;;;4995331;28;20202;-71
2022/01/04 00:29:52;;;;;;;5.35;2.67;;;10.10;99.90;;;;;;4993819;28;20558;-70
2022/01/04 00:32:18;;;;;;;3.17;2.50;;;10.10;99.90;;;;;;4994672;28;20211;-70
2022/01/04 00:34:45;;;;;;;3.10;2.20;;;10.10;99.90;;;;;;4994688;28;20603;-70
2022/01/04 00:37:11;;;;;;;3.17;2.85;;;10.10;99.90;;;;;;4994739;28;20203;-70
2022/01/04 00:39:37;;;;;;;4.55;2.42;;;10.10;99.90;;;;;;4994449;28;20202;-70
2022/01/04 00:42:04;;;;;;;4.38;2.95;;;10.10;99.90;;;;;;4994869;28;20219;-70
2022/01/04 00:44:31;;;;;;;2.42;2.33;;;10.10;99.90;;;;;;4995362;28;20859;-69
2022/01/04 00:46:59;;;;;;;2.40;2.20;;;10.10;99.90;;;;;;4997234;28;20195;-69
2022/01/04 00:49:25;;;;;;;4.05;2.58;;;10.10;99.90;;;;;;4998267;28;20706;-69
2022/01/04 00:51:53;;;;;;;2.60;2.40;;;10.10;99.90;;;;;;4998173;28;20210;-69
2022/01/04 00:54:20;;;;;;;3.10;2.67;;;10.10;99.90;;;;;;4998675;28;20206;-69
2022/01/04 00:56:48;;;;;;;2.35;2.15;;;10.10;99.90;;;;;;4998191;28;20202;-70
2022/01/04 00:59:15;;;;;;;2.22;2.03;;;10.10;99.90;;;;;;4999192;28;20209;-69
2022/01/04 01:01:41;;;;;;;5.82;2.97;;;10.00;99.90;;;;;;4999167;28;20250;-69
2022/01/04 01:04:08;;;;;;;4.85;2.40;;;10.00;99.90;;;;;;4998852;28;20204;-70
2022/01/04 01:06:35;;;;;;;3.85;2.15;;;10.00;99.90;;;;;;4996934;28;20618;-69
2022/01/04 01:09:02;;;;;;;5.20;2.65;;;10.00;99.90;;;;;;4998622;28;20198;-69
2022/01/04 01:11:29;;;;;;;2.92;2.60;;;10.00;99.90;;;;;;4998171;28;20268;-69
2022/01/04 01:13:55;;;;;;;2.58;2.40;;;10.00;99.90;;;;;;4997743;28;20256;-69
2022/01/04 01:16:22;;;;;;;5.25;2.72;;;10.00;99.90;;;;;;4997938;28;20206;-70
2022/01/04 01:18:49;;;;;;;3.85;2.55;;;10.00;99.90;;;;;;4997554;28;20211;-71
2022/01/04 01:21:15;;;;;;;2.80;2.60;;;10.00;99.90;;;;;;4997170;28;20272;-69
2022/01/04 01:23:42;;;;;;;2.25;2.05;;;10.00;99.90;;;;;;4998517;28;20257;-70
2022/01/04 01:26:09;;;;;;;3.78;3.03;;;10.00;99.90;;;;;;4997915;28;20211;-70
2022/01/04 01:28:36;;;;;;;3.70;2.58;;;10.00;99.90;;;;;;4997979;28;20198;-70
2022/01/04 01:31:03;;;;;;;3.00;2.63;;;10.00;99.90;;;;;;4997453;28;20206;-69
2022/01/04 01:33:29;;;;;;;5.10;2.55;;;10.00;99.90;;;;;;4997577;28;20256;-69
2022/01/04 01:35:56;;;;;;;3.33;2.65;;;10.00;99.90;;;;;;4997919;28;20207;-70
2022/01/04 01:38:23;;;;;;;3.15;2.65;;;10.00;99.90;;;;;;4997646;28;20383;-69
2022/01/04 01:40:51;;;;;;;4.40;3.17;;;10.00;99.90;;;;;;4997599;28;20210;-69
2022/01/04 01:43:18;;;;;;;3.20;3.00;;;10.00;99.90;;;;;;4996688;28;20214;-71
2022/01/04 01:45:46;;;;;;;4.90;3.00;;;10.00;99.90;;;;;;4997755;28;20600;-70
2022/01/04 01:48:13;;;;;;;3.38;2.92;;;10.00;99.90;;;;;;4997493;28;20260;-69
2022/01/04 01:50:39;;;;;;;2.45;2.20;;;10.00;99.90;;;;;;4997393;28;20681;-70
2022/01/04 01:53:06;;;;;;;3.85;2.70;;;10.00;99.90;;;;;;4997704;28;20207;-70
2022/01/04 01:55:32;;;;;;;2.30;2.10;;;10.00;99.90;;;;;;4997580;28;20666;-70
2022/01/04 01:57:59;;;;;;;2.75;2.35;;;10.00;99.90;;;;;;4996267;28;20206;-70
2022/01/04 02:00:28;;;;;;;2.70;2.55;;;10.10;99.90;;;;;;4996845;28;20213;-70
2022/01/04 02:02:54;;;;;;;2.65;2.45;;;10.10;99.90;;;;;;4996740;28;20269;-69
2022/01/04 02:05:21;;;;;;;2.80;2.53;;;10.10;99.90;;;;;;4996744;28;20206;-69
2022/01/04 02:07:48;;;;;;;3.05;2.60;;;10.00;99.90;;;;;;4997005;28;20616;-70
2022/01/04 02:10:14;;;;;;;3.95;2.60;;;10.00;99.90;;;;;;4996465;28;20595;-70
2022/01/04 02:12:44;;;;;;;2.75;2.58;;;10.00;99.90;;;;;;4996965;28;20203;-70
2022/01/04 02:15:12;;;;;;;8.30;3.13;;;10.00;99.90;;;;;;4997005;28;20209;-70
2022/01/04 02:17:39;;;;;;;4.68;2.50;;;10.00;99.90;;;;;;4996399;28;20206;-70
2022/01/04 02:20:06;;;;;;;3.40;3.10;;;10.00;99.90;;;;;;4993509;28;20210;-70
2022/01/04 02:22:33;;;;;;;3.08;2.63;;;10.00;99.90;;;;;;4995710;28;20730;-70
2022/01/04 02:25:00;;;;;;;4.35;2.78;;;10.00;99.90;;;;;;4979519;28;20198;-70
2022/01/04 02:27:27;;;;;;;2.97;2.60;;;10.00;99.90;;;;;;4996390;28;20195;-69
2022/01/04 02:29:53;;;;;;;3.10;2.88;;;9.90;99.90;;;;;;4996013;28;20674;-69
2022/01/04 02:32:20;;;;;;;3.85;3.00;;;9.90;99.90;;;;;;4994696;28;20609;-69
2022/01/04 02:34:49;;;;;;;4.00;2.88;;;9.90;99.90;;;;;;4996241;28;20206;-69
2022/01/04 02:37:23;;;;;;;2.80;2.33;;;9.90;99.90;;;;;;4995134;28;20202;-69
2022/01/04 02:39:51;;;;;;;3.70;3.05;;;9.90;99.90;;;;;;4995795;28;20731;-69
2022/01/04 02:42:17;;;;;;;8.38;3.88;;;9.90;99.90;;;;;;4995788;28;20218;-69
2022/01/04 02:44:44;;;;;;;4.55;3.60;;;9.90;99.90;;;;;;4996152;28;20202;-69
2022/01/04 02:47:12;;;;;;;5.55;3.30;;;9.90;99.90;;;;;;4995693;28;20273;-69
2022/01/04 02:49:39;;;;;;;3.83;3.50;;;9.90;99.90;;;;;;4995606;28;20515;-69
2022/01/04 02:52:05;;;;;;;3.53;3.15;;;9.90;99.90;;;;;;4995567;28;20202;-69
2022/01/04 02:54:32;;;;;;;3.30;3.10;;;9.80;99.90;;;;;;4995596;28;20688;-69
2022/01/04 02:56:59;;;;;;;6.10;5.00;;;9.80;99.90;;;;;;4995218;28;20625;-69
2022/01/04 02:59:25;;;;;;;4.75;4.10;;;9.80;99.90;;;;;;4995438;28;20207;-69
2022/01/04 03:01:52;;;;;;;3.65;3.40;;;9.80;99.90;;;;;;4995434;28;20717;-70
2022/01/04 03:04:20;;;;;;;44.28;38.88;;;9.80;99.90;;;;;;4995704;28;20199;-69
2022/01/04 03:06:46;;;;;;;25.63;22.88;;;9.80;99.90;;;;;;4995411;28;20222;-69
2022/01/04 03:09:13;;;;;;;5.70;5.28;;;9.80;99.90;;;;;;4995020;28;20244;-69
2022/01/04 03:11:39;;;;;;;6.82;4.20;;;9.80;99.90;;;;;;4995586;28;20558;-69
2022/01/04 03:14:06;;;;;;;5.70;5.20;;;9.80;99.90;;;;;;4995128;28;20596;-69
2022/01/04 03:16:32;;;;;;;9.13;4.90;;;9.80;99.90;;;;;;4995026;28;20213;-69
2022/01/04 03:19:09;;;;;;;9.48;6.28;;;9.80;99.90;;;;;;4993976;28;20629;-69
2022/01/04 03:21:40;;;;;;;4.95;3.85;;;9.80;99.90;;;;;;4994773;28;20366;-70
2022/01/04 03:24:08;;;;;;;9.15;8.20;;;9.80;99.90;;;;;;4978023;28;20187;-70
2022/01/04 03:26:35;;;;;;;4.75;4.20;;;9.80;99.90;;;;;;4994622;28;20650;-69
2022/01/04 03:29:03;;;;;;;9.23;4.28;;;9.80;99.90;;;;;;4995571;28;20194;-70
2022/01/04 03:31:29;;;;;;;6.13;5.45;;;9.80;99.90;;;;;;4995928;28;20209;-70
2022/01/04 03:33:56;;;;;;;4.55;4.15;;;9.80;99.90;;;;;;4995372;28;20210;-69
2022/01/04 03:36:24;;;;;;;4.00;3.60;;;9.80;99.90;;;;;;4994727;28;20207;-69
2022/01/04 03:38:52;;;;;;;7.47;5.47;;;9.80;99.90;;;;;;4994733;28;20207;-69
2022/01/04 03:41:21;;;;;;;6.10;4.15;;;9.80;99.90;;;;;;4995531;28;20198;-69
2022/01/04 03:43:48;;;;;;;7.47;6.05;;;9.80;99.90;;;;;;4995493;28;20229;-69
2022/01/04 03:46:15;;;;;;;4.47;4.05;;;9.80;99.90;;;;;;4995306;28;20283;-69
2022/01/04 03:48:42;;;;;;;4.50;3.60;;;9.80;99.90;;;;;;4994989;28;20616;-69
2022/01/04 03:51:08;;;;;;;3.70;3.15;;;9.80;99.90;;;;;;4995380;28;20260;-69
2022/01/04 03:53:35;;;;;;;10.85;4.75;;;9.70;99.90;;;;;;4995318;28;20619;-70
2022/01/04 03:56:03;;;;;;;4.47;2.95;;;9.80;99.90;;;;;;4995463;28;20213;-69
2022/01/04 03:58:29;;;;;;;5.72;3.72;;;9.80;99.90;;;;;;4994865;28;20210;-69
2022/01/04 04:00:56;;;;;;;3.42;3.20;;;9.70;99.90;;;;;;4994571;28;20209;-70
2022/01/04 04:03:23;;;;;;;6.32;4.93;;;9.70;99.90;;;;;;4961419;28;20223;-70
2022/01/04 04:05:49;;;;;;;5.82;4.25;;;9.70;99.90;;;;;;4995172;28;20222;-70
2022/01/04 04:08:17;;;;;;;4.78;3.85;;;9.70;99.90;;;;;;4993542;28;20203;-70
2022/01/04 04:10:43;;;;;;;5.47;4.95;;;9.70;99.90;;;;;;4994928;28;20604;-70
2022/01/04 04:13:10;;;;;;;5.60;4.05;;;9.70;99.90;;;;;;4994441;28;20198;-70
2022/01/04 04:15:40;;;;;;;4.15;3.75;;;9.70;99.90;;;;;;4994729;28;20633;-70
2022/01/04 04:18:10;;;;;;;6.47;5.05;;;9.70;99.90;;;;;;4995299;28;20203;-70
2022/01/04 04:20:38;;;;;;;9.73;8.20;;;9.70;99.90;;;;;;4994876;28;20245;-69
2022/01/04 04:23:05;;;;;;;3.63;3.38;;;9.70;99.90;;;;;;4998720;28;20248;-70
2022/01/04 04:25:33;;;;;;;26.20;20.00;;;9.70;99.90;;;;;;4998588;28;20198;-70
2022/01/04 04:28:00;;;;;;;18.10;13.57;;;9.70;99.90;;;;;;4998086;28;20703;-70
2022/01/04 04:30:26;;;;;;;4.80;4.32;;;9.70;99.90;;;;;;4998227;28;20203;-70
2022/01/04 04:32:53;;;;;;;3.67;3.15;;;9.70;99.90;;;;;;4998549;28;20214;-70
2022/01/04 04:35:19;;;;;;;11.88;8.55;;;9.70;99.90;;;;;;4998027;28;20207;-69
2022/01/04 04:37:46;;;;;;;10.95;6.15;;;9.70;99.90;;;;;;4998388;28;20209;-70
2022/01/04 04:40:13;;;;;;;8.30;6.68;;;9.70;99.90;;;;;;4998576;28;20203;-70
2022/01/04 04:42:40;;;;;;;12.55;6.20;;;9.70;99.90;;;;;;4998417;28;20272;-70
2022/01/04 04:45:08;;;;;;;28.02;15.10;;;9.70;99.90;;;;;;4997913;28;20238;-70
2022/01/04 04:47:35;;;;;;;7.00;4.65;;;9.70;99.90;;;;;;4980296;28;20209;-70
2022/01/04 04:50:03;;;;;;;4.45;3.60;;;9.70;99.90;;;;;;4998100;28;20611;-69
2022/01/04 04:52:29;;;;;;;12.18;7.53;;;9.70;99.90;;;;;;4996991;28;20214;-70
2022/01/04 04:54:56;;;;;;;3.40;3.10;;;9.70;99.90;;;;;;4998414;28;20203;-70
2022/01/04 04:57:22;;;;;;;3.47;3.17;;;9.70;99.90;;;;;;4997373;28;20198;-70
2022/01/04 04:59:48;;;;;;;12.02;8.27;;;9.70;99.90;;;;;;4998181;28;20210;-70
2022/01/04 05:02:15;;;;;;;8.23;5.55;;;9.70;99.90;;;;;;4980706;28;20214;-70
2022/01/04 05:04:41;;;;;;;26.55;16.00;;;9.70;99.90;;;;;;4998945;28;20203;-70
2022/01/04 05:07:08;;;;;;;14.35;9.02;;;9.70;99.90;;;;;;4998593;28;20219;-70
2022/01/04 05:09:34;;;;;;;11.02;7.57;;;9.70;99.90;;;;;;4997942;28;20685;-70
2022/01/04 05:12:01;;;;;;;16.33;9.55;;;9.70;99.90;;;;;;4997762;28;20217;-70
2022/01/04 05:14:28;;;;;;;8.68;5.68;;;9.80;99.90;;;;;;4997361;28;20257;-70
2022/01/04 05:16:54;;;;;;;37.45;18.40;;;9.70;99.90;;;;;;4998379;28;20203;-70
2022/01/04 05:19:20;;;;;;;13.07;8.88;;;9.80;99.90;;;;;;4998567;28;20199;-70
2022/01/04 05:21:47;;;;;;;7.95;7.13;;;9.80;99.90;;;;;;4997783;28;20231;-70
2022/01/04 05:24:13;;;;;;;4.15;2.55;;;9.80;99.90;;;;;;4998334;28;20559;-70
2022/01/04 05:26:40;;;;;;;3.60;2.55;;;9.80;99.90;;;;;;4997026;28;20209;-70
2022/01/04 05:29:06;;;;;;;3.75;2.20;;;9.90;99.90;;;;;;4997758;28;20203;-70
2022/01/04 05:31:32;;;;;;;2.42;2.20;;;9.90;99.90;;;;;;4997713;28;20697;-70
2022/01/04 05:33:59;;;;;;;4.18;2.20;;;9.90;99.90;;;;;;4997957;28;20878;-70
2022/01/04 05:36:25;;;;;;;2.25;2.15;;;9.90;99.90;;;;;;4998256;28;20209;-70
2022/01/04 05:38:52;;;;;;;2.78;2.55;;;9.90;99.90;;;;;;4995486;28;20692;-70
2022/01/04 05:41:18;;;;;;;3.30;2.22;;;9.90;99.90;;;;;;4997675;28;20206;-70
2022/01/04 05:43:46;;;;;;;2.50;2.40;;;9.90;99.90;;;;;;4997630;28;20227;-70
2022/01/04 05:46:12;;;;;;;3.25;2.80;;;9.90;99.90;;;;;;4997329;28;20199;-70
2022/01/04 05:48:39;;;;;;;2.50;2.35;;;9.90;99.90;;;;;;4997182;28;20209;-70
2022/01/04 05:51:05;;;;;;;3.72;3.33;;;9.90;99.90;;;;;;4996883;28;20677;-70
2022/01/04 05:53:33;;;;;;;2.70;2.50;;;9.90;99.90;;;;;;4996912;28;20210;-70
2022/01/04 05:55:59;;;;;;;3.50;3.20;;;9.90;99.90;;;;;;4996421;28;20213;-70
2022/01/04 05:58:26;;;;;;;2.65;2.55;;;9.90;99.90;;;;;;4996778;28;20207;-69
2022/01/04 06:00:52;;;;;;;4.03;3.28;;;10.00;99.90;;;;;;4995956;28;20218;-69
2022/01/04 06:03:18;;;;;;;3.75;3.22;;;10.00;99.90;;;;;;4996649;28;20292;-70
2022/01/04 06:05:45;;;;;;;3.30;3.03;;;10.00;99.90;;;;;;4996889;28;20202;-71
2022/01/04 06:08:12;;;;;;;2.72;2.53;;;10.00;99.90;;;;;;4997227;28;20222;-70
2022/01/04 06:10:40;;;;;;;3.22;2.92;;;10.00;99.90;;;;;;4979493;28;20253;-70
2022/01/04 06:15:38;;;;;;;4.95;3.00;;;10.00;99.90;;;;;;4996843;28;20207;-71
2022/01/04 06:18:04;;;;;;;2.45;2.35;;;10.00;99.90;;;;;;4996264;28;20214;-71
2022/01/04 06:20:31;;;;;;;2.78;2.47;;;10.00;99.90;;;;;;4997057;28;20261;-70
2022/01/04 06:22:58;;;;;;;3.75;2.83;;;10.00;99.90;;;;;;4978790;28;20654;-71
2022/01/04 06:25:25;;;;;;;2.55;2.20;;;10.10;99.90;;;;;;4995968;28;20199;-70
2022/01/04 06:27:53;;;;;;;6.78;2.33;;;10.10;99.90;;;;;;4997208;28;20233;-70
2022/01/04 06:30:22;;;;;;;2.33;2.13;;;10.10;99.90;;;;;;4996606;28;20264;-70
2022/01/04 06:32:49;;;;;;;3.15;2.50;;;10.10;99.90;;;;;;4996652;28;20730;-71
2022/01/04 06:35:15;;;;;;;2.45;2.35;;;10.10;99.90;;;;;;4978146;28;20634;-71
2022/01/04 06:37:44;;;;;;;2.65;2.00;;;10.10;99.90;;;;;;4980558;28;20198;-71
2022/01/04 06:40:12;;;;;;;1.95;1.85;;;10.10;99.90;;;;;;4997400;28;20706;-71
2022/01/04 06:42:38;;;;;;;2.50;2.10;;;10.10;99.90;;;;;;4997365;28;20772;-72
2022/01/04 06:45:05;;;;;;;3.22;2.60;;;10.10;99.90;;;;;;4998436;28;20606;-72
2022/01/04 06:47:32;;;;;;;1.80;1.70;;;10.20;99.90;;;;;;4999095;28;20202;-72
2022/01/04 06:49:58;;;;;;;2.78;2.58;;;10.20;99.90;;;;;;5000152;28;20198;-72
2022/01/04 06:52:50;;;;;;;2.53;2.28;;;10.20;99.90;;;;;;5001107;28;20202;-72
2022/01/04 06:55:17;;;;;;;2.92;2.72;;;10.20;99.90;;;;;;4999792;28;20203;-71
2022/01/04 06:57:43;;;;;;;2.10;2.00;;;10.20;99.90;;;;;;4999032;28;20273;-72
2022/01/04 07:00:11;;;;;;;3.00;2.08;;;10.20;99.90;;;;;;4998786;28;20212;-72
2022/01/04 07:02:37;;;;;;;4.15;2.33;;;10.20;99.90;;;;;;4999123;28;20207;-73
2022/01/04 07:05:04;;;;;;;2.53;2.38;;;10.20;99.90;;;;;;4998308;28;20207;-72
2022/01/04 07:07:30;;;;;;;3.33;2.75;;;10.20;99.90;;;;;;4998727;28;20222;-72
2022/01/04 07:09:57;;;;;;;2.70;2.50;;;10.20;99.90;;;;;;4998275;28;20264;-72
2022/01/04 07:12:23;;;;;;;3.53;2.70;;;10.20;99.90;;;;;;4997302;28;20206;-72
2022/01/04 07:14:50;;;;;;;3.83;3.40;;;10.20;99.90;;;;;;4998628;28;20210;-72
2022/01/04 07:17:16;;;;;;;3.13;2.92;;;10.20;99.90;;;;;;4999088;28;20217;-71
2022/01/04 07:19:43;;;;;;;2.92;2.67;;;10.30;99.90;;;;;;4999204;28;20203;-72
2022/01/04 07:22:10;;;;;;;3.50;3.30;;;10.30;99.90;;;;;;4997665;28;20230;-72
2022/01/04 07:24:36;;;;;;;6.82;3.10;;;10.30;99.90;;;;;;4997180;28;20218;-72
2022/01/04 07:27:04;;;;;;;5.75;3.33;;;10.20;99.90;;;;;;4997138;28;20318;-72
2022/01/04 07:29:31;;;;;;;4.13;3.42;;;10.30;99.90;;;;;;4998181;28;20549;-72
2022/01/04 07:31:57;;;;;;;4.80;2.92;;;10.30;99.90;;;;;;4980500;28;20206;-72
2022/01/04 07:34:24;;;;;;;3.40;3.20;;;10.30;99.90;;;;;;4996977;28;20210;-71
2022/01/04 07:36:50;;;;;;;3.40;3.17;;;10.30;99.90;;;;;;4997576;28;20221;-71
2022/01/04 07:39:17;;;;;;;4.25;3.85;;;10.30;99.90;;;;;;4998663;28;20202;-71
2022/01/04 07:41:43;;;;;;;3.72;3.42;;;10.30;99.90;;;;;;4965817;28;20213;-71
2022/01/04 07:44:09;;;;;;;4.47;3.95;;;10.30;99.90;;;;;;4997526;28;20222;-71
2022/01/04 07:46:36;;;;;;;4.20;3.80;;;10.40;99.90;;;;;;4996849;28;20659;-71
2022/01/04 07:49:03;;;;;;;2.83;2.72;;;10.40;99.90;;;;;;4998000;28;20202;-71
2022/01/04 07:51:31;;;;;;;4.35;3.95;;;10.40;99.90;;;;;;4995486;28;20203;-71
2022/01/04 07:53:57;;;;;;;7.70;3.83;;;10.40;99.90;;;;;;4996929;28;20202;-71
2022/01/04 07:56:23;;;;;;;3.55;3.03;;;10.40;99.90;;;;;;5000457;28;20594;-72
2022/01/04 07:58:50;;;;;;;3.10;2.90;;;10.40;99.90;;;;;;4983204;28;20214;-72
2022/01/04 08:01:17;;;;;;;5.63;4.40;;;10.40;99.90;;;;;;5000773;28;20693;-72
2022/01/04 08:03:43;;;;;;;6.22;3.45;;;10.40;99.90;;;;;;5000751;28;20368;-71
2022/01/04 08:06:10;;;;;;;3.45;3.20;;;10.40;99.90;;;;;;5000297;28;20694;-70
2022/01/04 08:08:36;;;;;;;3.50;3.30;;;10.40;99.90;;;;;;4999993;28;20198;-70
2022/01/04 08:11:03;;;;;;;3.08;2.85;;;10.40;99.90;;;;;;4999954;28;20194;-70
2022/01/04 08:13:30;;;;;;;4.00;2.85;;;10.50;99.90;;;;;;5001353;28;20206;-70
2022/01/04 08:15:57;;;;;;;3.00;2.90;;;10.50;99.90;;;;;;4983317;28;20206;-70
2022/01/04 08:18:23;;;;;;;5.30;2.95;;;10.50;99.90;;;;;;5000570;28;20598;-71
2022/01/04 08:20:55;;;;;;;4.95;2.60;;;10.50;99.90;;;;;;5001624;28;20215;-71
2022/01/04 08:23:22;;;;;;;6.88;2.40;;;10.50;99.90;;;;;;5002479;28;20226;-71
2022/01/04 08:25:49;;;;;;;3.13;2.60;;;10.50;99.90;;;;;;5000384;28;20281;-71
2022/01/04 08:28:15;;;;;;;3.47;3.17;;;10.50;99.90;;;;;;4982030;28;20564;-71
2022/01/04 08:30:43;;;;;;;2.75;2.40;;;10.60;99.90;;;;;;5000480;28;20213;-71
2022/01/04 08:33:10;;;;;;;2.72;2.55;;;10.60;99.90;;;;;;5000996;28;20211;-71
2022/01/04 08:35:38;;;;;;;3.22;2.47;;;10.60;99.90;;;;;;5001342;28;20273;-71
2022/01/04 08:38:06;;;;;;;2.40;2.20;;;10.60;99.90;;;;;;5001652;28;20214;-71
2022/01/04 08:40:33;;;;;;;5.85;2.50;;;10.70;99.90;;;;;;5000740;28;20210;-71
2022/01/04 08:42:59;;;;;;;2.63;2.42;;;10.70;99.90;;;;;;4999922;28;20228;-71
2022/01/04 08:45:27;;;;;;;10.27;5.70;;;10.70;99.90;;;;;;4982498;28;20573;-71
2022/01/04 08:47:54;;;;;;;4.95;4.45;;;10.70;99.90;;;;;;4999500;28;20207;-71
2022/01/04 08:50:20;;;;;;;2.40;2.20;;;10.70;99.90;;;;;;4999505;28;20659;-71
2022/01/04 08:52:51;;;;;;;3.00;2.80;;;10.70;99.90;;;;;;4999441;28;20203;-71
2022/01/04 08:55:18;;;;;;;3.50;3.30;;;10.70;99.90;;;;;;4999514;28;20560;-71
2022/01/04 08:57:44;;;;;;;2.90;2.00;;;10.70;99.90;;;;;;4999262;28;20249;-71
2022/01/04 09:00:11;;;;;;;3.33;2.40;;;10.80;99.90;;;;;;4998859;28;20203;-71
2022/01/04 09:02:38;;;;;;;2.90;2.35;;;10.80;99.90;;;;;;4999148;28;20662;-71
2022/01/04 09:05:06;;;;;;;2.42;1.92;;;10.80;99.90;;;;;;4998435;28;20234;-71
2022/01/04 09:07:32;;;;;;;2.45;2.10;;;10.80;99.90;;;;;;5000093;28;20215;-71
2022/01/04 09:09:59;;;;;;;2.40;2.20;;;10.80;99.90;;;;;;4999768;28;20665;-71
2022/01/04 09:12:36;;;;;;;2.90;2.17;;;10.90;99.90;;;;;;4999454;28;20203;-71
2022/01/04 09:15:27;;;;;;;2.22;2.08;;;10.90;99.90;;;;;;4999635;28;20187;-72
2022/01/04 09:20:38;;;;;;;5.28;2.38;;;10.90;99.90;;;;;;4999440;28;20202;-71
2022/01/04 09:23:05;;;;;;;4.60;2.15;;;11.00;99.90;;;;;;4998584;28;20202;-71
2022/01/04 09:25:31;;;;;;;5.15;2.40;;;11.00;99.90;;;;;;4998282;28;20585;-71
2022/01/04 09:27:58;;;;;;;2.63;2.40;;;11.00;99.90;;;;;;4998777;28;20199;-72
2022/01/04 09:30:25;;;;;;;3.55;3.35;;;11.10;99.90;;;;;;4998248;28;20206;-72
2022/01/04 09:32:52;;;;;;;3.05;2.42;;;11.10;99.90;;;;;;4998002;28;20207;-72
2022/01/04 09:35:19;;;;;;;3.15;1.40;;;11.20;99.90;;;;;;4998968;28;20206;-71
2022/01/04 09:37:45;;;;;;;2.20;2.00;;;11.30;99.90;;;;;;5000212;28;20211;-71
2022/01/04 09:40:12;;;;;;;2.05;1.85;;;11.30;99.90;;;;;;4999669;28;20256;-71
2022/01/04 09:42:39;;;;;;;2.05;1.95;;;11.40;99.90;;;;;;4998868;28;20199;-71
2022/01/04 09:45:06;;;;;;;1.88;1.77;;;11.40;99.90;;;;;;4981503;28;20222;-71
2022/01/04 09:47:33;;;;;;;3.58;2.15;;;11.50;99.90;;;;;;4999431;28;20198;-71
2022/01/04 09:49:59;;;;;;;2.17;1.90;;;11.50;99.90;;;;;;5000128;28;20199;-72
2022/01/04 09:52:26;;;;;;;1.80;1.70;;;11.50;99.90;;;;;;4998426;28;20203;-72
2022/01/04 09:54:54;;;;;;;2.30;1.73;;;11.50;99.90;;;;;;4980878;28;20202;-72
2022/01/04 09:57:21;;;;;;;2.42;2.25;;;11.60;99.90;;;;;;4999164;28;20786;-72
2022/01/04 09:59:49;;;;;;;2.15;1.95;;;11.70;99.90;;;;;;5001414;28;20213;-71
2022/01/04 10:02:19;;;;;;;1.92;1.83;;;11.70;99.90;;;;;;5001732;28;20213;-72
2022/01/04 10:04:47;;;;;;;3.65;1.92;;;11.70;99.90;;;;;;5001281;28;20222;-71
2022/01/04 10:07:13;;;;;;;3.55;2.28;;;11.80;99.90;;;;;;5000138;28;20285;-72
2022/01/04 10:09:46;;;;;;;2.00;1.77;;;11.80;99.90;;;;;;4981090;28;20632;-71
2022/01/04 10:12:18;;;;;;;2.05;1.92;;;11.70;99.90;;;;;;4999110;28;20586;-72
2022/01/04 10:14:49;;;;;;;3.55;1.75;;;11.70;99.90;;;;;;4998164;28;20642;-71
2022/01/04 10:17:21;;;;;;;3.38;2.33;;;11.70;99.90;;;;;;4997226;28;20241;-71
2022/01/04 10:19:50;;;;;;;1.90;1.73;;;11.70;99.90;;;;;;4996022;28;20210;-71
2022/01/04 10:22:30;;;;;;;4.60;1.95;;;11.80;99.90;;;;;;4997633;28;20245;-72
2022/01/04 10:25:01;;;;;;;2.13;1.60;;;11.70;99.90;;;;;;4997695;28;20293;-71
2022/01/04 10:27:36;;;;;;;2.22;1.95;;;11.80;99.90;;;;;;4998504;28;20203;-71
2022/01/04 10:30:09;;;;;;;1.88;1.50;;;;;;;;;;4997596;28;20202;-71
2022/01/04 10:32:55;;;;;;;2.05;1.58;;;11.90;99.90;;;;;;4998179;28;20198;-72
2022/01/04 10:35:41;;;;;;;1.40;1.30;;;11.80;99.90;;;;;;4998930;28;20206;-71
2022/01/04 10:38:19;;;;;;;5.28;2.17;;;12.00;99.90;;;;;;4998382;28;20222;-71
2022/01/04 10:40:57;;;;;;;1.77;1.67;;;11.90;99.90;;;;;;4998745;28;20206;-71
2022/01/04 10:43:28;;;;;;;4.20;1.40;;;11.90;99.90;;;;;;4998712;28;20194;-72
2022/01/04 10:45:56;;;;;;;1.60;1.50;;;11.80;99.90;;;;;;4998139;28;20550;-71
2022/01/04 10:48:24;;;;;;;2.08;1.45;;;11.90;99.90;;;;;;4999079;28;20286;-71
2022/01/04 10:50:53;;;;;;;3.45;2.40;;;11.90;99.90;;;;;;4998676;28;20198;-70
2022/01/04 10:53:29;;;;;;;3.78;1.75;;;11.90;99.90;;;;;;4997909;28;20325;-70
2022/01/04 10:55:59;;;;;;;5.10;1.27;;;12.00;99.90;;;;;;4997822;28;20210;-70
2022/01/04 10:58:38;;;;;;;1.65;1.55;;;11.90;99.90;;;;;;4998047;28;20614;-70
2022/01/04 11:01:26;;;;;;;1.77;1.50;;;11.90;99.90;;;;;;4997636;28;20191;-70
2022/01/04 11:03:59;;;;;;;2.28;2.05;;;12.00;99.90;;;;;;4996744;28;20210;-70
2022/01/04 11:06:35;;;;;;;2.33;1.60;;;12.00;99.90;;;;;;4996579;28;20225;-70
2022/01/04 11:09:03;;;;;;;4.15;1.80;;;12.00;99.90;;;;;;4997631;28;20193;-70
2022/01/04 11:11:29;;;;;;;1.50;1.40;;;12.10;99.90;;;;;;4997492;28;20654;-71
2022/01/04 11:13:57;;;;;;;3.60;1.90;;;12.20;99.90;;;;;;4996937;28;20713;-70
2022/01/04 11:16:25;;;;;;;1.48;1.38;;;12.10;99.90;;;;;;4996467;28;20617;-72
2022/01/04 11:18:53;;;;;;;1.67;1.50;;;12.20;99.90;;;;;;4997262;28;20663;-70
2022/01/04 11:21:26;;;;;;;2.80;1.90;;;12.20;99.90;;;;;;4997874;28;20597;-70
2022/01/04 11:23:55;;;;;;;2.30;1.63;;;12.30;99.90;;;;;;4997023;28;20233;-73
2022/01/04 11:26:22;;;;;;;2.90;1.80;;;12.30;99.90;;;;;;4998031;28;20564;-70
2022/01/04 11:28:51;;;;;;;2.93;2.03;;;12.30;99.90;;;;;;4997956;28;20709;-70
2022/01/04 11:31:37;;;;;;;1.92;1.60;;;12.40;99.90;;;;;;4980510;28;20606;-71
2022/01/04 11:34:10;;;;;;;1.70;1.60;;;12.40;99.90;;;;;;4997402;28;20659;-72
2022/01/04 11:36:42;;;;;;;2.47;1.80;;;12.30;99.90;;;;;;4997908;28;20666;-72
2022/01/04 11:39:39;;;;;;;2.27;2.07;;;12.50;99.90;;;;;;4980158;28;20203;-72
2022/01/04 11:42:10;;;;;;;1.92;1.70;;;12.40;99.90;;;;;;4997272;28;20978;-71
2022/01/04 11:44:49;;;;;;;2.20;2.00;;;12.30;99.90;;;;;;4979346;28;20698;-71
2022/01/04 11:47:22;;;;;;;2.40;1.52;;;12.10;99.90;;;;;;4997528;28;20606;-71
2022/01/04 11:50:10;;;;;;;2.15;1.67;;;12.10;99.90;;;;;;4997655;28;20190;-72
2022/01/04 11:52:40;;;;;;;1.63;1.52;;;12.00;99.90;;;;;;4996769;28;20241;-71
2022/01/04 11:55:26;;;;;;;4.13;1.80;;;12.00;99.90;;;;;;4997371;28;20202;-72
2022/01/04 11:57:56;;;;;;;3.17;1.67;;;11.90;99.90;;;;;;4996028;28;20202;-72
2022/01/04 12:00:37;;;;;;;3.97;2.08;;;11.80;99.90;;;;;;4997940;28;20206;-72
2022/01/04 12:03:15;;;;;;;2.00;1.75;;;11.80;99.90;;;;;;4997184;28;20210;-71
2022/01/04 12:06:02;;;;;;;2.35;1.60;;;11.70;99.90;;;;;;4997942;28;20222;-72
2022/01/04 12:08:51;;;;;;;3.50;2.00;;;11.60;99.90;;;;;;4997068;28;20538;-72
2022/01/04 12:11:22;;;;;;;2.15;1.95;;;11.60;99.90;;;;;;4997230;28;20190;-71
2022/01/04 12:13:59;;;;;;;3.33;2.30;;;11.60;99.90;;;;;;4997257;28;20203;-73
2022/01/04 12:16:33;;;;;;;2.78;2.22;;;11.50;99.90;;;;;;4996795;28;20289;-71
2022/01/04 12:19:01;;;;;;;3.65;2.10;;;11.50;99.90;;;;;;4997108;28;20206;-71
2022/01/04 12:21:30;;;;;;;2.15;1.65;;;11.70;99.90;;;;;;4996214;28;20253;-72
2022/01/04 12:23:57;;;;;;;2.55;2.25;;;11.60;99.90;;;;;;4979552;28;20215;-71
2022/01/04 12:26:32;;;;;;;0.90;0.90;;;11.50;99.90;;;;;;4997101;28;20226;-71
2022/01/04 12:29:02;;;;;;;1.20;1.00;;;9.80;99.90;;;;;;4997452;28;20288;-72
2022/01/04 12:31:33;;;;;;;1.63;1.35;;;8.90;99.90;;;;;;4996600;28;20214;-73
2022/01/04 12:34:03;;;;;;;1.10;0.90;;;8.60;99.90;;;;;;4996474;28;20202;-73
2022/01/04 12:36:38;;;;;;;2.90;1.20;;;8.40;99.90;;;;;;4980477;28;20198;-72
2022/01/04 12:39:07;;;;;;;0.98;0.98;;;8.20;99.90;;;;;;4996406;28;20214;-73
2022/01/04 12:41:35;;;;;;;1.20;1.10;;;8.20;99.90;;;;;;4996989;28;20395;-72
2022/01/04 12:44:03;;;;;;;1.15;1.05;;;8.20;99.90;;;;;;5000846;28;20832;-71
2022/01/04 12:46:36;;;;;;;1.40;1.30;;;8.20;99.90;;;;;;5000537;28;20207;-71
2022/01/04 12:49:06;;;;;;;2.22;1.60;;;8.10;99.90;;;;;;5000594;28;20183;-72
2022/01/04 12:51:47;;;;;;;2.10;1.70;;;8.20;99.90;;;;;;5000724;28;20202;-73
2022/01/04 12:54:15;;;;;;;1.70;1.50;;;8.20;99.90;;;;;;5001139;28;20194;-71
2022/01/04 12:56:49;;;;;;;1.15;1.10;;;8.20;99.90;;;;;;4999441;28;20203;-71
2022/01/04 12:59:24;;;;;;;1.33;1.23;;;8.20;99.90;;;;;;4999413;28;20206;-72
2022/01/04 13:02:17;;;;;;;1.60;1.50;;;8.20;99.90;;;;;;5000554;28;20233;-72
2022/01/04 13:05:07;;;;;;;1.23;1.10;;;8.20;99.90;;;;;;4999952;28;20638;-72